Data for 04/14/2007

Time Sea-Level Adjusted Pressure Absolute Pressure Temperature Relative Humidity Dew Point   
(mb) (inHg) (mb) (inHg) (C) (F) (%) (C) (F)
00:05 1017 30.03 846 24.98 5 41 40 -7.4 18.7
00:10 1017 30.03 846 24.98 4.3 39.8 41 -7.8 17.9
00:15 1017 30.03 846 24.98 4.7 40.4 37 -8.9 16
00:20 1017 30.03 846 24.98 5.4 41.7 38 -7.9 17.8
00:25 1017 30.03 847 25.01 4.8 40.7 41 -7.4 18.7
00:30 1017 30.03 847 25.01 4.2 39.5 41 -7.8 17.9
00:35 1017 30.03 847 25.01 4.2 39.5 40 -8.4 16.9
00:40 1017 30.03 846 24.98 4.6 40.3 38 -8.4 16.8
00:45 1017 30.03 846 24.98 5.1 41.1 36 -8.9 15.9
00:50 1017 30.03 846 24.98 5.2 41.4 37 -8.3 17.1
00:55 1017 30.03 847 25.01 5.1 41.2 38 -8.2 17.2
01:00 1017 30.03 847 25.01 4.9 40.8 38 -8.4 16.9
01:05 1017 30.03 847 25.01 4.8 40.6 38 -8.4 16.9
01:10 1017 30.03 847 25.01 5.2 41.4 35 -8.9 16
01:15 1017 30.03 847 25.01 5.4 41.8 35 -8.8 16.1
01:20 1017 30.03 847 25.01 5.4 41.7 35 -8.7 16.3
01:25 1017 30.03 847 25.01 5 41.1 37 -8.6 16.5
01:30 1017 30.03 847 25.01 5.1 41.1 38 -8.2 17.2
01:35 1017 30.03 847 25.01 5.2 41.4 35 -9.1 15.6
01:40 1017 30.03 847 25.01 5.5 42 35 -8.9 16.1
01:45 1017 30.03 847 25.01 5.5 41.9 36 -8.6 16.6
01:50 1017 30.03 847 25.01 5.3 41.6 37 -8.2 17.2
01:55 1018 30.06 847 25.01 4.8 40.7 40 -7.6 18.3
02:00 1017 30.03 847 25.01 4.4 40 41 -7.7 18.1
02:05 1017 30.03 847 25.01 4.4 39.9 41 -7.8 17.9
02:10 1017 30.03 847 25.01 4.3 39.8 42 -7.6 18.4
02:15 1017 30.03 847 25.01 4.1 39.5 42 -7.6 18.4
02:20 1017 30.03 847 25.01 4 39.1 41 -8.1 17.5
02:25 1017 30.03 846 24.98 4.4 39.8 37 -9.1 15.7
02:30 1017 30.03 846 24.98 4.8 40.7 36 -8.9 16
02:35 1017 30.03 846 24.98 4.9 40.8 38 -8.5 16.8
02:40 1017 30.03 846 24.98 4.9 40.8 38 -8.1 17.4
02:45 1017 30.03 846 24.98 4.7 40.4 39 -8 17.6
02:50 1017 30.03 846 24.98 4.5 40.1 41 -7.7 18.2
02:55 1017 30.03 846 24.98 4.2 39.6 42 -7.4 18.6
03:00 1017 30.03 846 24.98 4 39.3 43 -7.4 18.7
03:05 1017 30.03 846 24.98 4 39.1 44 -7.2 19
03:10 1017 30.03 846 24.98 3.7 38.6 45 -7.1 19.2
03:15 1017 30.03 846 24.98 3.5 38.3 46 -7.2 19.1
03:20 1017 30.03 846 24.98 3.4 38.1 46 -7.2 19
03:25 1017 30.03 846 24.98 3.4 38.2 46 -7.2 19
03:30 1017 30.03 846 24.98 3.4 38.2 46 -7.2 19
03:35 1017 30.03 846 24.98 3.4 38.2 46 -7.2 19
03:40 1017 30.03 846 24.98 3.3 38 46 -7.1 19.2
03:45 1017 30.03 846 24.98 3.2 37.8 46 -7.3 18.9
03:50 1017 30.03 846 24.98 3.2 37.7 47 -7 19.4
03:55 1017 30.03 846 24.98 2.8 37.1 49 -6.8 19.7
04:00 1017 30.03 846 24.98 2.5 36.6 49 -7.1 19.2
04:05 1017 30.03 846 24.98 2.7 36.9 47 -7.4 18.8
04:10 1017 30.03 846 24.98 3.1 37.5 46 -7.4 18.7
04:15 1017 30.03 846 24.98 3.4 38.1 45 -7.5 18.4
04:20 1017 30.03 846 24.98 3.7 38.7 44 -7.4 18.7
04:25 1017 30.03 846 24.98 3.7 38.6 45 -7.3 18.8
04:30 1017 30.03 846 24.98 3.6 38.6 45 -7.2 19
04:35 1017 30.03 846 24.98 3.4 38.1 47 -7 19.5
04:40 1017 30.03 846 24.98 3.2 37.8 48 -6.8 19.7
04:45 1016 30 846 24.98 3.2 37.7 47 -7.1 19.3
04:50 1016 30 846 24.98 3.2 37.7 48 -6.9 19.6
04:55 1016 30 846 24.98 3.2 37.7 47 -7 19.3
05:00 1016 30 846 24.98 3.4 38.1 47 -7 19.4
05:05 1016 30 846 24.98 3.3 37.9 46 -7.2 19.1
05:10 1016 30 845 24.95 3.1 37.7 48 -6.8 19.8
05:15 1016 30 846 24.98 3.1 37.5 47 -7.1 19.2
05:20 1016 30 845 24.95 3.1 37.5 48 -7 19.4
05:25 1016 30 845 24.95 3 37.5 46 -7.4 18.6
05:30 1016 30 845 24.95 3.1 37.6 47 -7.1 19.2
05:35 1016 30 845 24.95 2.9 37.2 47 -7.2 19
05:40 1016 30 845 24.95 3 37.4 47 -7.2 19
05:45 1016 30 845 24.95 2.9 37.3 48 -6.9 19.5
05:50 1016 30 845 24.95 2.8 37.1 47 -7.4 18.6
05:55 1016 30 845 24.95 3.6 38.6 42 -8 17.7
06:00 1016 30 845 24.95 4.2 39.6 41 -8 17.6
06:05 1016 30 845 24.95 4.1 39.4 42 -7.8 18
06:10 1016 30 845 24.95 3.8 38.8 41 -8.2 17.2
06:15 1016 30 845 24.95 3.9 39 41 -8.2 17.3
06:20 1016 30 845 24.95 3.9 39 42 -8 17.6
06:25 1016 30 845 24.95 3.9 39 42 -7.8 17.9
06:30 1016 30 845 24.95 3.6 38.5 43 -7.8 18
06:35 1016 30 845 24.95 3.5 38.4 43 -7.8 18
06:40 1016 30 845 24.95 3.3 38 44 -7.8 17.9
06:45 1016 30 845 24.95 3.4 38.2 42 -8.4 16.9
06:50 1016 30 845 24.95 3.7 38.7 42 -7.9 17.7
06:55 1016 30 845 24.95 3.7 38.6 42 -8 17.6
07:00 1016 30 845 24.95 3.8 38.9 42 -8.1 17.4
07:05 1016 30 845 24.95 4 39.1 41 -8.1 17.5
07:10 1016 30 845 24.95 4.2 39.5 41 -7.9 17.8
07:15 1016 30 845 24.95 4.2 39.6 41 -8 17.7
07:20 1016 30 845 24.95 4.5 40.2 41 -7.5 18.4
07:25 1016 30 845 24.95 4.3 39.8 44 -7 19.4
07:30 1016 30 845 24.95 3.8 38.9 45 -6.9 19.6
07:35 1016 30 845 24.95 3.7 38.6 45 -7.1 19.2
07:40 1016 30 845 24.95 4.2 39.5 43 -7.2 19.1
07:45 1016 30 845 24.95 4.8 40.6 43 -6.9 19.6
07:50 1016 30 845 24.95 5 41 43 -6.6 20.1
07:55 1016 30 845 24.95 5 41 45 -5.9 21.3
08:00 1016 30 845 24.95 4.9 40.9 44 -6.2 20.8
08:05 1016 30 845 24.95 5.1 41.3 43 -6.5 20.4
08:10 1016 30 845 24.95 5.4 41.7 44 -6 21.2
08:15 1016 30 845 24.95 5.6 42 44 -5.7 21.8
08:20 1016 30 845 24.95 6 42.8 42 -5.9 21.4
08:25 1016 30 845 24.95 6.5 43.8 40 -6.1 20.9
08:30 1016 30 845 24.95 6.8 44.3 37 -6.9 19.6
08:35 1016 30 845 24.95 7.2 45 36 -7 19.5
08:40 1016 30 845 24.95 7.8 46.1 34 -7.2 19.1
08:45 1016 30 845 24.95 8.3 47 31 -7.8 18
08:50 1016 30 845 24.95 8.7 47.6 30 -8 17.7
08:55 1016 30 845 24.95 9 48.1 31 -7.5 18.5
09:00 1016 30 845 24.95 9.1 48.4 30 -7.5 18.4
09:05 1016 30 845 24.95 9.3 48.8 30 -7.4 18.6
09:10 1016 30 845 24.95 9.7 49.4 29 -7.7 18.2
09:15 1016 30 845 24.95 9.7 49.4 30 -7.1 19.1
09:20 1016 30 845 24.95 10.1 50.2 31 -6.2 20.8
09:25 1016 30 845 24.95 9.7 49.4 34 -5.4 22.2
09:30 1016 30 845 24.95 9.1 48.4 36 -5.2 22.7
09:35 1016 30 845 24.95 8.9 47.9 35 -5.7 21.7
09:40 1015 29.97 845 24.95 8.8 47.8 34 -6.2 20.8
09:45 1016 30 845 24.95 9.3 48.7 33 -6.4 20.6
09:50 1016 30 845 24.95 10 50.1 31 -6.2 20.9
09:55 1015 29.97 845 24.95 11 51.8 33 -4.8 23.3
10:00 1015 29.97 845 24.95 11.5 52.8 33 -4.2 24.5
10:05 1015 29.97 845 24.95 11.8 53.2 32 -4.5 23.9
10:10 1015 29.97 845 24.95 11.8 53.2 32 -4.4 24.1
10:15 1015 29.97 845 24.95 12.1 53.8 30 -4.8 23.3
10:20 1015 29.97 845 24.95 12.2 53.9 30 -4.7 23.6
10:25 1015 29.97 844 24.92 11.9 53.5 30 -5.2 22.6
10:30 1015 29.97 844 24.92 12.4 54.3 30 -4.8 23.4
10:35 1015 29.97 844 24.92 11.9 53.4 31 -4.7 23.5
10:40 1015 29.97 844 24.92 12.4 54.4 29 -5.2 22.7
10:45 1015 29.97 844 24.92 12.9 55.3 28 -5 23.1
10:50 1015 29.97 844 24.92 13.8 56.9 26 -5.3 22.5
10:55 1015 29.97 844 24.92 14.3 57.7 26 -4.7 23.5
11:00 1015 29.97 844 24.92 13.4 56.1 28 -4.6 23.7
11:05 1015 29.97 844 24.92 12.4 54.4 29 -5.3 22.5
11:10 1015 29.97 844 24.92 13.9 57 26 -5.4 22.3
11:15 1015 29.97 844 24.92 13.9 57 26 -5.1 22.9
11:20 1015 29.97 844 24.92 14.6 58.4 26 -4.7 23.5
11:25 1015 29.97 844 24.92 15.4 59.7 24 -4.9 23.2
11:30 1015 29.97 844 24.92 15.9 60.5 23 -4.9 23.2
11:35 1015 29.97 844 24.92 16.3 61.3 23 -4.6 23.7
11:40 1015 29.97 844 24.92 16.7 62.1 23 -4.5 23.9
11:45 1015 29.97 844 24.92 16.4 61.5 23 -4.8 23.4
11:50 1015 29.97 844 24.92 16.7 62 22 -4.9 23.2
11:55 1015 29.97 844 24.92 16.3 61.4 24 -4.2 24.4
12:00 1015 29.97 844 24.92 16.6 61.9 22 -4.9 23.1
12:05 1015 29.97 844 24.92 17.1 62.8 23 -4.3 24.2
12:10 1014 29.94 844 24.92 16.5 61.8 23 -4.4 24.1
12:15 1014 29.94 844 24.92 15.9 60.5 23 -4.9 23.1
12:20 1014 29.94 843 24.89 15.2 59.3 25 -4.5 23.9
12:25 1014 29.94 843 24.89 15.3 59.6 24 -4.8 23.4
12:30 1014 29.94 843 24.89 16.3 61.3 23 -4.9 23.1
12:35 1014 29.94 843 24.89 16.3 61.4 23 -4.6 23.7
12:40 1014 29.94 843 24.89 16.6 61.8 23 -4.3 24.3
12:45 1014 29.94 843 24.89 17.6 63.7 22 -4.5 23.8
12:50 1014 29.94 843 24.89 16.6 61.9 23 -4.6 23.6
12:55 1014 29.94 843 24.89 16.8 62.2 23 -4.5 23.8
13:00 1014 29.94 843 24.89 16.8 62.2 22 -5 23.1
13:05 1013 29.91 843 24.89 16.1 61 24 -4.6 23.7
13:10 1013 29.91 843 24.89 16.6 61.8 23 -4.7 23.6
13:15 1013 29.91 842 24.86 17.1 62.8 21 -5.5 22.1
13:20 1013 29.91 842 24.86 17.7 63.9 20 -5.4 22.2
13:25 1013 29.91 842 24.86 17.8 64.1 20 -5.3 22.5
13:30 1013 29.91 842 24.86 17.8 64 20 -5.5 22.2
13:35 1013 29.91 842 24.86 17.3 63.1 21 -4.9 23.2
13:40 1013 29.91 842 24.86 17.3 63.1 21 -5.4 22.3
13:45 1013 29.91 842 24.86 17.7 63.9 19 -5.8 21.5
13:50 1013 29.91 842 24.86 17.4 63.4 20 -5.9 21.5
13:55 1012 29.88 842 24.86 17.5 63.5 19 -6.1 21.1
14:00 1012 29.88 842 24.86 18 64.4 19 -6.2 20.9
14:05 1012 29.88 842 24.86 18 64.5 18 -6.3 20.7
14:10 1012 29.88 842 24.86 18.4 65.1 18 -6 21.1
14:15 1012 29.88 842 24.86 18.5 65.2 19 -5.7 21.7
14:20 1012 29.88 841 24.83 18.1 64.6 19 -5.8 21.6
14:25 1012 29.88 841 24.83 18.3 64.9 18 -6.1 21
14:30 1012 29.88 841 24.83 19.1 66.4 16 -6.9 19.5
14:35 1012 29.88 841 24.83 19.5 67 15 -7.8 17.9
14:40 1012 29.88 841 24.83 19 66.2 14 -8.9 16.1
14:45 1012 29.88 841 24.83 18.3 64.9 14 -9.6 14.7
14:50 1012 29.88 841 24.83 18.4 65.2 14 -9.4 15.1
14:55 1012 29.88 841 24.83 18.3 64.9 15 -9 15.8
15:00 1012 29.88 841 24.83 18.5 65.3 20 -4.5 23.8
15:05 1012 29.88 841 24.83 18.1 64.5 21 -4.3 24.3
15:10 1012 29.88 841 24.83 17.8 64 21 -4.5 24
15:15 1012 29.88 841 24.83 18.2 64.7 21 -4.7 23.5
15:20 1012 29.88 841 24.83 18.3 64.9 20 -4.7 23.6
15:25 1012 29.88 841 24.83 18.5 65.3 20 -4.8 23.3
15:30 1012 29.88 841 24.83 18.5 65.3 20 -5.1 22.8
15:35 1012 29.88 841 24.83 18.9 66 19 -5.4 22.3
15:40 1012 29.88 841 24.83 19 66.3 18 -5.6 21.9
15:45 1012 29.88 841 24.83 19.1 66.4 16 -7.1 19.2
15:50 1012 29.88 841 24.83 18.4 65.1 18 -6.2 20.9
15:55 1012 29.88 841 24.83 19 66.1 15 -8.1 17.5
16:00 1012 29.88 841 24.83 19.6 67.2 15 -7.8 18
16:05 1011 29.85 841 24.83 19 66.3 16 -7.4 18.7
16:10 1011 29.85 840 24.81 18.6 65.6 18 -6.1 21
16:15 1011 29.85 841 24.83 18.3 65 17 -6.7 19.9
16:20 1011 29.85 841 24.83 18.7 65.6 15 -8.5 16.7
16:25 1011 29.85 841 24.83 19.5 67 14 -8.7 16.3
16:30 1011 29.85 840 24.81 20.2 68.4 14 -8.4 16.9
16:35 1011 29.85 840 24.81 20.6 69 13 -8.5 16.7
16:40 1011 29.85 840 24.81 19.2 66.6 13 -9.7 14.5
16:45 1011 29.85 840 24.81 18.6 65.4 13 -10.1 13.8
16:50 1011 29.85 840 24.81 19.3 66.7 13 -9.8 14.4
16:55 1011 29.85 840 24.81 19.4 66.9 13 -9.5 14.9
17:00 1011 29.85 840 24.81 20 68 13 -8.9 16
17:05 1011 29.85 840 24.81 19.9 67.9 13 -9.3 15.2
17:10 1011 29.85 840 24.81 19.1 66.3 14 -8.8 16.1
17:15 1011 29.85 840 24.81 18.5 65.3 15 -8.8 16.1
17:20 1011 29.85 840 24.81 19 66.2 14 -9 15.8
17:25 1011 29.85 840 24.81 19.4 66.9 14 -8.7 16.3
17:30 1011 29.85 840 24.81 19.6 67.3 14 -8.4 16.9
17:35 1011 29.85 840 24.81 19.2 66.6 14 -9.1 15.7
17:40 1011 29.85 840 24.81 18.7 65.7 15 -8.5 16.6
17:45 1011 29.85 840 24.81 18.1 64.6 15 -8.8 16.2
17:50 1011 29.85 840 24.81 17.9 64.2 16 -8.1 17.4
17:55 1011 29.85 840 24.81 18.1 64.5 16 -8.2 17.3
18:00 1011 29.85 840 24.81 18.2 64.7 16 -8.1 17.4
18:05 1011 29.85 840 24.81 18.2 64.8 16 -8.2 17.3
18:10 1011 29.85 840 24.81 18.2 64.8 15 -8.5 16.8
18:15 1011 29.85 840 24.81 18.3 65 15 -8.4 16.8
18:20 1011 29.85 840 24.81 18.5 65.3 15 -8.8 16.2
18:25 1011 29.85 840 24.81 18.7 65.6 14 -8.9 16
18:30 1011 29.85 840 24.81 18.3 64.9 15 -8.7 16.4
18:35 1011 29.85 840 24.81 17.8 64 15 -9 15.9
18:40 1011 29.85 840 24.81 17.5 63.5 15 -9.2 15.5
18:45 1011 29.85 840 24.81 17.3 63.2 16 -8.9 15.9
18:50 1011 29.85 840 24.81 17.4 63.3 16 -8.7 16.3
18:55 1011 29.85 840 24.81 17.3 63.2 16 -8.3 17
19:00 1011 29.85 840 24.81 17.1 62.7 19 -6.9 19.6
19:05 1011 29.85 840 24.81 16.8 62.3 18 -7.7 18.1
19:10 1011 29.85 840 24.81 16.7 62 19 -7 19.4
19:15 1011 29.85 840 24.81 16.3 61.3 22 -5.7 21.8
19:20 1011 29.85 840 24.81 15.7 60.3 22 -5.8 21.6
19:25 1011 29.85 840 24.81 15.6 60 22 -5.7 21.7
19:30 1011 29.85 840 24.81 15.4 59.8 23 -5.8 21.6
19:35 1011 29.85 840 24.81 15.7 60.3 19 -8.1 17.4
19:40 1011 29.85 840 24.81 16.2 61.1 20 -6.6 20.1
19:45 1011 29.85 840 24.81 16 60.8 19 -7.5 18.5
19:50 1011 29.85 840 24.81 15.8 60.4 20 -7.1 19.2
19:55 1011 29.85 840 24.81 15.2 59.4 21 -7 19.5
20:00 1011 29.85 840 24.81 14.9 58.9 22 -6.5 20.3
20:05 1011 29.85 840 24.81 14.8 58.7 22 -6.4 20.5
20:10 1011 29.85 840 24.81 14.8 58.6 22 -6.4 20.5
20:15 1011 29.85 840 24.81 14.8 58.6 22 -6.5 20.2
20:20 1011 29.85 840 24.81 14.8 58.6 21 -7.1 19.3
20:25 1011 29.85 840 24.81 14.7 58.4 22 -7 19.4
20:30 1011 29.85 840 24.81 14.4 58 22 -6.7 19.9
20:35 1011 29.85 840 24.81 14.1 57.4 22 -7 19.4
20:40 1011 29.85 840 24.81 14.3 57.7 22 -6.8 19.7
20:45 1011 29.85 840 24.81 14.3 57.7 21 -7.4 18.6
20:50 1011 29.85 840 24.81 14.3 57.8 22 -7 19.4
20:55 1011 29.85 840 24.81 14.4 57.8 22 -7.2 19.1
21:00 1011 29.85 840 24.81 14.2 57.5 22 -7.2 19
21:05 1011 29.85 840 24.81 14.1 57.3 23 -6.9 19.6
21:10 1011 29.85 841 24.83 13.8 56.9 23 -7.1 19.2
21:15 1011 29.85 841 24.83 14 57.3 22 -7.3 18.9
21:20 1011 29.85 841 24.83 14 57.2 23 -7 19.3
21:25 1011 29.85 841 24.83 14.1 57.3 22 -7.1 19.3
21:30 1012 29.88 841 24.83 13.9 57.1 23 -6.8 19.7
21:35 1012 29.88 841 24.83 13.7 56.7 23 -6.8 19.8
21:40 1012 29.88 841 24.83 13.6 56.5 24 -6.7 19.9
21:45 1012 29.88 841 24.83 13.5 56.4 24 -6.3 20.6
21:50 1012 29.88 841 24.83 13.5 56.3 24 -6.4 20.6
21:55 1012 29.88 841 24.83 13.5 56.4 24 -6.8 19.8
22:00 1012 29.88 841 24.83 13.5 56.4 23 -7 19.4
22:05 1012 29.88 841 24.83 13.5 56.3 23 -7.1 19.2
22:10 1012 29.88 841 24.83 13.4 56.2 24 -6.7 20
22:15 1012 29.88 841 24.83 13.3 55.9 25 -6.5 20.4
22:20 1012 29.88 841 24.83 13 55.3 26 -6.2 20.8
22:25 1012 29.88 841 24.83 12.8 55.1 25 -6.6 20.1
22:30 1012 29.88 841 24.83 13.1 55.6 24 -6.9 19.5
22:35 1012 29.88 841 24.83 13.4 56.2 23 -7 19.4
22:40 1012 29.88 841 24.83 13.3 56 24 -6.7 19.9
22:45 1012 29.88 841 24.83 13.2 55.7 26 -6.1 21.1
22:50 1012 29.88 841 24.83 13 55.3 23 -7.4 18.7
22:55 1012 29.88 841 24.83 13.4 56.1 23 -7.5 18.5
23:00 1012 29.88 841 24.83 13.5 56.4 26 -5.5 22.1
23:05 1012 29.88 841 24.83 12.9 55.2 27 -5.8 21.6
23:10 1012 29.88 841 24.83 13 55.4 24 -7.1 19.3
23:15 1012 29.88 841 24.83 13.2 55.8 25 -6.6 20.2
23:20 1012 29.88 841 24.83 13.1 55.7 25 -6.2 20.8
23:25 1012 29.88 841 24.83 13 55.4 26 -6.2 20.9
23:30 1012 29.88 841 24.83 12.7 54.9 28 -5.3 22.4
23:35 1012 29.88 841 24.83 12.3 54.2 28 -5.5 22
23:40 1012 29.88 841 24.83 11.9 53.5 28 -5.8 21.5
23:45 1011 29.85 841 24.83 11.9 53.4 29 -5.7 21.7
23:50 1012 29.88 841 24.83 11.6 52.9 29 -5.8 21.6
23:55 1011 29.85 841 24.83 11.1 51.9 32 -5.1 22.9
24:00 1011 29.85 841 24.83 10.3 50.6 33 -5.3 22.5